sensor_id;sensor_type;location;lat;lon;timestamp;temperature;humidity
9984;DHT22;16737;50.932;6.780;2023-11-19T00:00:00;15.40;99.90
9984;DHT22;16737;50.932;6.780;2023-11-19T00:02:29;15.40;99.90
9984;DHT22;16737;50.932;6.780;2023-11-19T00:04:56;15.40;99.90
9984;DHT22;16737;50.932;6.780;2023-11-19T00:07:23;15.40;99.90
9984;DHT22;16737;50.932;6.780;2023-11-19T00:09:50;15.50;99.90
9984;DHT22;16737;50.932;6.780;2023-11-19T00:12:17;15.50;99.90
9984;DHT22;16737;50.932;6.780;2023-11-19T00:14:46;15.60;99.90
9984;DHT22;16737;50.932;6.780;2023-11-19T00:17:13;15.60;99.90
9984;DHT22;16737;50.932;6.780;2023-11-19T00:19:40;15.60;99.90
9984;DHT22;16737;50.932;6.780;2023-11-19T00:22:07;15.60;99.90
9984;DHT22;16737;50.932;6.780;2023-11-19T00:24:34;15.70;99.90
9984;DHT22;16737;50.932;6.780;2023-11-19T00:27:04;15.70;99.90
9984;DHT22;16737;50.932;6.780;2023-11-19T00:29:33;15.70;99.90
9984;DHT22;16737;50.932;6.780;2023-11-19T00:32:01;15.70;99.90
9984;DHT22;16737;50.932;6.780;2023-11-19T00:34:29;15.70;99.90
9984;DHT22;16737;50.932;6.780;2023-11-19T00:36:56;15.80;99.90
9984;DHT22;16737;50.932;6.780;2023-11-19T00:39:23;15.80;99.90
9984;DHT22;16737;50.932;6.780;2023-11-19T00:41:53;15.70;99.90
9984;DHT22;16737;50.932;6.780;2023-11-19T00:44:19;15.80;99.90
9984;DHT22;16737;50.932;6.780;2023-11-19T00:46:48;15.80;99.90
9984;DHT22;16737;50.932;6.780;2023-11-19T00:49:16;15.80;99.90
9984;DHT22;16737;50.932;6.780;2023-11-19T00:51:43;15.90;99.90
9984;DHT22;16737;50.932;6.780;2023-11-19T00:54:11;15.80;99.90
9984;DHT22;16737;50.932;6.780;2023-11-19T00:56:38;15.90;99.90
9984;DHT22;16737;50.932;6.780;2023-11-19T00:59:05;15.90;99.90
9984;DHT22;16737;50.932;6.780;2023-11-19T01:01:33;15.90;99.90
9984;DHT22;16737;50.932;6.780;2023-11-19T01:04:00;15.90;99.90
9984;DHT22;16737;50.932;6.780;2023-11-19T01:06:29;15.90;99.90
9984;DHT22;16737;50.932;6.780;2023-11-19T01:08:57;16.00;99.90
9984;DHT22;16737;50.932;6.780;2023-11-19T01:11:25;16.00;99.90
9984;DHT22;16737;50.932;6.780;2023-11-19T01:13:52;16.00;99.90
9984;DHT22;16737;50.932;6.780;2023-11-19T01:16:19;16.00;99.90
9984;DHT22;16737;50.932;6.780;2023-11-19T01:18:47;16.00;99.90
9984;DHT22;16737;50.932;6.780;2023-11-19T01:21:14;16.00;99.90
9984;DHT22;16737;50.932;6.780;2023-11-19T01:23:43;16.00;99.90
9984;DHT22;16737;50.932;6.780;2023-11-19T01:26:11;16.00;99.90
9984;DHT22;16737;50.932;6.780;2023-11-19T01:28:39;16.00;99.90
9984;DHT22;16737;50.932;6.780;2023-11-19T01:31:08;16.00;99.90
9984;DHT22;16737;50.932;6.780;2023-11-19T01:33:36;16.00;99.90
9984;DHT22;16737;50.932;6.780;2023-11-19T01:36:03;16.00;99.90
9984;DHT22;16737;50.932;6.780;2023-11-19T01:38:31;16.00;99.90
9984;DHT22;16737;50.932;6.780;2023-11-19T01:41:00;16.00;99.90
9984;DHT22;16737;50.932;6.780;2023-11-19T01:43:33;16.00;99.90
9984;DHT22;16737;50.932;6.780;2023-11-19T01:46:00;16.00;99.90
9984;DHT22;16737;50.932;6.780;2023-11-19T01:48:28;16.00;99.90
9984;DHT22;16737;50.932;6.780;2023-11-19T01:50:56;16.00;99.90
9984;DHT22;16737;50.932;6.780;2023-11-19T01:53:23;16.00;99.90
9984;DHT22;16737;50.932;6.780;2023-11-19T01:55:51;16.00;99.90
9984;DHT22;16737;50.932;6.780;2023-11-19T01:58:20;16.00;99.90
9984;DHT22;16737;50.932;6.780;2023-11-19T02:00:47;16.00;99.90
9984;DHT22;16737;50.932;6.780;2023-11-19T02:03:15;16.10;99.90
9984;DHT22;16737;50.932;6.780;2023-11-19T02:05:48;16.10;99.90
9984;DHT22;16737;50.932;6.780;2023-11-19T02:08:18;16.10;99.90
9984;DHT22;16737;50.932;6.780;2023-11-19T02:10:46;16.10;99.90
9984;DHT22;16737;50.932;6.780;2023-11-19T02:13:15;16.10;99.90
9984;DHT22;16737;50.932;6.780;2023-11-19T02:15:44;16.10;99.90
9984;DHT22;16737;50.932;6.780;2023-11-19T02:18:21;16.10;99.90
9984;DHT22;16737;50.932;6.780;2023-11-19T02:20:49;16.10;99.90
9984;DHT22;16737;50.932;6.780;2023-11-19T02:23:18;16.10;99.90
9984;DHT22;16737;50.932;6.780;2023-11-19T02:25:55;16.10;99.90
9984;DHT22;16737;50.932;6.780;2023-11-19T02:28:30;16.10;99.90
9984;DHT22;16737;50.932;6.780;2023-11-19T02:30:58;16.10;99.90
9984;DHT22;16737;50.932;6.780;2023-11-19T02:33:25;16.10;99.90
9984;DHT22;16737;50.932;6.780;2023-11-19T02:35:52;16.20;99.90
9984;DHT22;16737;50.932;6.780;2023-11-19T02:38:19;16.20;99.90
9984;DHT22;16737;50.932;6.780;2023-11-19T02:40:47;16.20;99.90
9984;DHT22;16737;50.932;6.780;2023-11-19T02:43:14;16.20;99.90
9984;DHT22;16737;50.932;6.780;2023-11-19T02:45:54;16.20;99.90
9984;DHT22;16737;50.932;6.780;2023-11-19T02:48:22;16.20;99.90
9984;DHT22;16737;50.932;6.780;2023-11-19T02:50:50;16.20;99.90
9984;DHT22;16737;50.932;6.780;2023-11-19T02:53:18;16.20;99.90
9984;DHT22;16737;50.932;6.780;2023-11-19T02:55:47;16.20;99.90
9984;DHT22;16737;50.932;6.780;2023-11-19T02:58:15;16.20;99.90
9984;DHT22;16737;50.932;6.780;2023-11-19T03:00:49;16.20;99.90
9984;DHT22;16737;50.932;6.780;2023-11-19T03:03:24;16.10;99.90
9984;DHT22;16737;50.932;6.780;2023-11-19T03:05:54;16.10;99.90
9984;DHT22;16737;50.932;6.780;2023-11-19T03:08:21;16.10;99.90
9984;DHT22;16737;50.932;6.780;2023-11-19T03:11:11;16.10;99.90
9984;DHT22;16737;50.932;6.780;2023-11-19T03:13:40;16.10;99.90
9984;DHT22;16737;50.932;6.780;2023-11-19T03:16:08;16.10;99.90
9984;DHT22;16737;50.932;6.780;2023-11-19T03:18:38;16.00;99.90
9984;DHT22;16737;50.932;6.780;2023-11-19T03:21:06;16.00;99.90
9984;DHT22;16737;50.932;6.780;2023-11-19T03:23:34;16.00;99.90
9984;DHT22;16737;50.932;6.780;2023-11-19T03:26:01;16.00;99.90
9984;DHT22;16737;50.932;6.780;2023-11-19T03:28:31;16.00;99.90
9984;DHT22;16737;50.932;6.780;2023-11-19T03:30:58;16.00;99.90
9984;DHT22;16737;50.932;6.780;2023-11-19T03:33:25;16.00;99.90
9984;DHT22;16737;50.932;6.780;2023-11-19T03:35:54;16.00;99.90
9984;DHT22;16737;50.932;6.780;2023-11-19T03:38:23;16.00;99.90
9984;DHT22;16737;50.932;6.780;2023-11-19T03:40:51;16.00;99.90
9984;DHT22;16737;50.932;6.780;2023-11-19T03:43:18;16.00;99.90
9984;DHT22;16737;50.932;6.780;2023-11-19T03:45:45;16.00;99.90
9984;DHT22;16737;50.932;6.780;2023-11-19T03:48:13;16.00;99.90
9984;DHT22;16737;50.932;6.780;2023-11-19T03:50:42;16.00;99.90
9984;DHT22;16737;50.932;6.780;2023-11-19T03:53:12;16.00;99.90
9984;DHT22;16737;50.932;6.780;2023-11-19T03:55:39;16.00;99.90
9984;DHT22;16737;50.932;6.780;2023-11-19T03:58:06;15.90;99.90
9984;DHT22;16737;50.932;6.780;2023-11-19T04:00:33;15.90;99.90
9984;DHT22;16737;50.932;6.780;2023-11-19T04:03:00;16.00;99.90
9984;DHT22;16737;50.932;6.780;2023-11-19T04:05:28;15.90;99.90
9984;DHT22;16737;50.932;6.780;2023-11-19T04:07:55;15.90;99.90
9984;DHT22;16737;50.932;6.780;2023-11-19T04:10:23;15.90;99.90
9984;DHT22;16737;50.932;6.780;2023-11-19T04:12:50;15.90;99.90
9984;DHT22;16737;50.932;6.780;2023-11-19T04:15:17;15.90;99.90
9984;DHT22;16737;50.932;6.780;2023-11-19T04:17:44;15.90;99.90
9984;DHT22;16737;50.932;6.780;2023-11-19T04:20:12;15.90;99.90
9984;DHT22;16737;50.932;6.780;2023-11-19T04:22:41;15.90;99.90
9984;DHT22;16737;50.932;6.780;2023-11-19T04:25:08;15.90;99.90
9984;DHT22;16737;50.932;6.780;2023-11-19T04:27:37;15.90;99.90
9984;DHT22;16737;50.932;6.780;2023-11-19T04:30:06;15.90;99.90
9984;DHT22;16737;50.932;6.780;2023-11-19T04:32:39;15.90;99.90
9984;DHT22;16737;50.932;6.780;2023-11-19T04:35:09;15.90;99.90
9984;DHT22;16737;50.932;6.780;2023-11-19T04:37:36;15.90;99.90
9984;DHT22;16737;50.932;6.780;2023-11-19T04:40:05;15.90;99.90
9984;DHT22;16737;50.932;6.780;2023-11-19T04:42:33;15.90;99.90
9984;DHT22;16737;50.932;6.780;2023-11-19T04:45:01;15.90;99.90
9984;DHT22;16737;50.932;6.780;2023-11-19T04:47:28;15.90;99.90
9984;DHT22;16737;50.932;6.780;2023-11-19T04:49:55;15.90;99.90
9984;DHT22;16737;50.932;6.780;2023-11-19T04:52:22;15.90;99.90
9984;DHT22;16737;50.932;6.780;2023-11-19T04:54:49;15.80;99.90
9984;DHT22;16737;50.932;6.780;2023-11-19T04:57:16;15.90;99.90
9984;DHT22;16737;50.932;6.780;2023-11-19T04:59:43;15.80;99.90
9984;DHT22;16737;50.932;6.780;2023-11-19T05:02:12;15.80;99.90
9984;DHT22;16737;50.932;6.780;2023-11-19T05:04:42;15.80;99.90
9984;DHT22;16737;50.932;6.780;2023-11-19T05:07:12;15.80;99.90
9984;DHT22;16737;50.932;6.780;2023-11-19T05:09:39;15.80;99.90
9984;DHT22;16737;50.932;6.780;2023-11-19T05:12:06;15.80;99.90
9984;DHT22;16737;50.932;6.780;2023-11-19T05:14:35;15.80;99.90
9984;DHT22;16737;50.932;6.780;2023-11-19T05:17:02;15.80;99.90
9984;DHT22;16737;50.932;6.780;2023-11-19T05:19:31;15.70;99.90
9984;DHT22;16737;50.932;6.780;2023-11-19T05:21:58;15.70;99.90
9984;DHT22;16737;50.932;6.780;2023-11-19T05:24:25;15.70;99.90
9984;DHT22;16737;50.932;6.780;2023-11-19T05:26:52;15.70;99.90
9984;DHT22;16737;50.932;6.780;2023-11-19T05:29:19;15.70;99.90
9984;DHT22;16737;50.932;6.780;2023-11-19T05:31:47;15.70;99.90
9984;DHT22;16737;50.932;6.780;2023-11-19T05:34:14;15.60;99.90
9984;DHT22;16737;50.932;6.780;2023-11-19T05:36:42;15.60;99.90
9984;DHT22;16737;50.932;6.780;2023-11-19T05:39:09;15.60;99.90
9984;DHT22;16737;50.932;6.780;2023-11-19T05:41:39;15.60;99.90
9984;DHT22;16737;50.932;6.780;2023-11-19T05:44:06;15.60;99.90
9984;DHT22;16737;50.932;6.780;2023-11-19T05:46:33;15.60;99.90
9984;DHT22;16737;50.932;6.780;2023-11-19T05:49:05;15.50;99.90
9984;DHT22;16737;50.932;6.780;2023-11-19T05:51:36;15.50;99.90
9984;DHT22;16737;50.932;6.780;2023-11-19T05:54:06;15.50;99.90
9984;DHT22;16737;50.932;6.780;2023-11-19T05:56:33;15.50;99.90
9984;DHT22;16737;50.932;6.780;2023-11-19T05:59:01;15.50;99.90
9984;DHT22;16737;50.932;6.780;2023-11-19T06:01:32;15.50;99.90
9984;DHT22;16737;50.932;6.780;2023-11-19T06:04:00;15.50;99.90
9984;DHT22;16737;50.932;6.780;2023-11-19T06:06:28;15.40;99.90
9984;DHT22;16737;50.932;6.780;2023-11-19T06:08:55;15.40;99.90
9984;DHT22;16737;50.932;6.780;2023-11-19T06:11:23;15.40;99.90
9984;DHT22;16737;50.932;6.780;2023-11-19T06:13:52;15.40;99.90
9984;DHT22;16737;50.932;6.780;2023-11-19T06:16:21;15.40;99.90
9984;DHT22;16737;50.932;6.780;2023-11-19T06:18:49;15.40;99.90
9984;DHT22;16737;50.932;6.780;2023-11-19T06:21:19;15.40;99.90
9984;DHT22;16737;50.932;6.780;2023-11-19T06:23:46;15.40;99.90
9984;DHT22;16737;50.932;6.780;2023-11-19T06:26:13;15.40;99.90
9984;DHT22;16737;50.932;6.780;2023-11-19T06:28:42;15.40;99.90
9984;DHT22;16737;50.932;6.780;2023-11-19T06:31:09;15.40;99.90
9984;DHT22;16737;50.932;6.780;2023-11-19T06:33:36;15.40;99.90
9984;DHT22;16737;50.932;6.780;2023-11-19T06:36:04;15.30;99.90
9984;DHT22;16737;50.932;6.780;2023-11-19T06:38:33;15.30;99.90
9984;DHT22;16737;50.932;6.780;2023-11-19T06:41:00;15.30;99.90
9984;DHT22;16737;50.932;6.780;2023-11-19T06:43:27;15.30;99.90
9984;DHT22;16737;50.932;6.780;2023-11-19T06:45:56;15.30;99.90
9984;DHT22;16737;50.932;6.780;2023-11-19T06:48:23;15.30;99.90
9984;DHT22;16737;50.932;6.780;2023-11-19T06:50:50;15.30;99.90
9984;DHT22;16737;50.932;6.780;2023-11-19T06:53:17;15.30;99.90
9984;DHT22;16737;50.932;6.780;2023-11-19T06:55:44;15.30;99.90
9984;DHT22;16737;50.932;6.780;2023-11-19T06:58:11;15.30;99.90
9984;DHT22;16737;50.932;6.780;2023-11-19T07:00:38;15.30;99.90
9984;DHT22;16737;50.932;6.780;2023-11-19T07:03:06;15.30;99.90
9984;DHT22;16737;50.932;6.780;2023-11-19T07:05:36;15.30;99.90
9984;DHT22;16737;50.932;6.780;2023-11-19T07:08:04;15.30;99.90
9984;DHT22;16737;50.932;6.780;2023-11-19T07:10:33;15.30;99.90
9984;DHT22;16737;50.932;6.780;2023-11-19T07:13:00;15.20;99.90
9984;DHT22;16737;50.932;6.780;2023-11-19T07:15:29;15.20;99.90
9984;DHT22;16737;50.932;6.780;2023-11-19T07:18:01;15.20;99.90
9984;DHT22;16737;50.932;6.780;2023-11-19T07:20:29;15.20;99.90
9984;DHT22;16737;50.932;6.780;2023-11-19T07:22:56;15.20;99.90
9984;DHT22;16737;50.932;6.780;2023-11-19T07:25:23;15.20;99.90
9984;DHT22;16737;50.932;6.780;2023-11-19T07:27:51;15.20;99.90
9984;DHT22;16737;50.932;6.780;2023-11-19T07:30:19;15.20;99.90
9984;DHT22;16737;50.932;6.780;2023-11-19T07:32:46;15.20;99.90
9984;DHT22;16737;50.932;6.780;2023-11-19T07:35:13;15.20;99.90
9984;DHT22;16737;50.932;6.780;2023-11-19T07:37:42;15.20;99.90
9984;DHT22;16737;50.932;6.780;2023-11-19T07:40:10;15.20;99.90
9984;DHT22;16737;50.932;6.780;2023-11-19T07:42:37;15.20;99.90
9984;DHT22;16737;50.932;6.780;2023-11-19T07:45:05;15.20;99.90
9984;DHT22;16737;50.932;6.780;2023-11-19T07:47:33;15.20;99.90
9984;DHT22;16737;50.932;6.780;2023-11-19T07:50:00;15.10;99.90
9984;DHT22;16737;50.932;6.780;2023-11-19T07:52:27;15.20;99.90
9984;DHT22;16737;50.932;6.780;2023-11-19T07:54:56;15.10;99.90
9984;DHT22;16737;50.932;6.780;2023-11-19T07:57:31;15.20;99.90
9984;DHT22;16737;50.932;6.780;2023-11-19T07:59:59;15.20;99.90
9984;DHT22;16737;50.932;6.780;2023-11-19T08:02:27;15.20;99.90
9984;DHT22;16737;50.932;6.780;2023-11-19T08:04:54;15.20;99.90
9984;DHT22;16737;50.932;6.780;2023-11-19T08:07:21;15.20;99.90
9984;DHT22;16737;50.932;6.780;2023-11-19T08:09:48;15.20;99.90
9984;DHT22;16737;50.932;6.780;2023-11-19T08:12:17;15.20;99.90
9984;DHT22;16737;50.932;6.780;2023-11-19T08:14:46;15.20;99.90
9984;DHT22;16737;50.932;6.780;2023-11-19T08:17:14;15.20;99.90
9984;DHT22;16737;50.932;6.780;2023-11-19T08:19:42;15.20;99.90
9984;DHT22;16737;50.932;6.780;2023-11-19T08:22:09;15.20;99.90
9984;DHT22;16737;50.932;6.780;2023-11-19T08:24:36;15.30;99.90
9984;DHT22;16737;50.932;6.780;2023-11-19T08:27:04;15.30;99.90
9984;DHT22;16737;50.932;6.780;2023-11-19T08:29:32;15.30;99.90
9984;DHT22;16737;50.932;6.780;2023-11-19T08:32:00;15.40;99.90
9984;DHT22;16737;50.932;6.780;2023-11-19T08:34:27;15.40;99.90
9984;DHT22;16737;50.932;6.780;2023-11-19T08:36:55;15.40;99.90
9984;DHT22;16737;50.932;6.780;2023-11-19T08:39:21;15.40;99.90
9984;DHT22;16737;50.932;6.780;2023-11-19T08:41:48;15.50;99.90
9984;DHT22;16737;50.932;6.780;2023-11-19T08:44:16;15.50;99.90
9984;DHT22;16737;50.932;6.780;2023-11-19T08:46:48;15.50;99.90
9984;DHT22;16737;50.932;6.780;2023-11-19T08:49:15;15.50;99.90
9984;DHT22;16737;50.932;6.780;2023-11-19T08:51:42;15.60;99.90
9984;DHT22;16737;50.932;6.780;2023-11-19T08:54:10;15.60;99.90
9984;DHT22;16737;50.932;6.780;2023-11-19T08:56:38;15.60;99.90
9984;DHT22;16737;50.932;6.780;2023-11-19T08:59:05;15.60;99.90
9984;DHT22;16737;50.932;6.780;2023-11-19T09:01:32;15.70;99.90
9984;DHT22;16737;50.932;6.780;2023-11-19T09:04:03;15.70;99.90
9984;DHT22;16737;50.932;6.780;2023-11-19T09:06:31;15.70;99.90
9984;DHT22;16737;50.932;6.780;2023-11-19T09:08:58;15.80;99.90
9984;DHT22;16737;50.932;6.780;2023-11-19T09:11:28;15.80;99.90
9984;DHT22;16737;50.932;6.780;2023-11-19T09:13:58;15.80;99.90
9984;DHT22;16737;50.932;6.780;2023-11-19T09:16:25;15.90;99.90
9984;DHT22;16737;50.932;6.780;2023-11-19T09:18:52;15.90;99.90
9984;DHT22;16737;50.932;6.780;2023-11-19T09:21:23;15.90;99.90
9984;DHT22;16737;50.932;6.780;2023-11-19T09:23:50;15.90;99.90
9984;DHT22;16737;50.932;6.780;2023-11-19T09:26:18;15.90;99.90
9984;DHT22;16737;50.932;6.780;2023-11-19T09:28:45;16.00;99.90
9984;DHT22;16737;50.932;6.780;2023-11-19T09:31:13;16.00;99.90
9984;DHT22;16737;50.932;6.780;2023-11-19T09:33:41;16.00;99.90
9984;DHT22;16737;50.932;6.780;2023-11-19T09:36:09;16.00;99.90
9984;DHT22;16737;50.932;6.780;2023-11-19T09:38:40;16.10;99.90
9984;DHT22;16737;50.932;6.780;2023-11-19T09:41:07;16.10;99.90
9984;DHT22;16737;50.932;6.780;2023-11-19T09:43:38;16.10;99.90
9984;DHT22;16737;50.932;6.780;2023-11-19T09:46:08;16.20;99.90
9984;DHT22;16737;50.932;6.780;2023-11-19T09:48:38;16.20;99.90
9984;DHT22;16737;50.932;6.780;2023-11-19T09:51:06;16.20;99.90
9984;DHT22;16737;50.932;6.780;2023-11-19T09:53:34;16.30;99.90
9984;DHT22;16737;50.932;6.780;2023-11-19T09:56:03;16.30;99.90
9984;DHT22;16737;50.932;6.780;2023-11-19T09:58:33;16.30;99.90
9984;DHT22;16737;50.932;6.780;2023-11-19T10:01:01;16.40;99.90
9984;DHT22;16737;50.932;6.780;2023-11-19T10:03:33;16.40;99.90
9984;DHT22;16737;50.932;6.780;2023-11-19T10:06:04;16.40;99.90
9984;DHT22;16737;50.932;6.780;2023-11-19T10:08:33;16.40;99.90
9984;DHT22;16737;50.932;6.780;2023-11-19T10:11:01;16.50;99.90
9984;DHT22;16737;50.932;6.780;2023-11-19T10:13:29;16.50;99.90
9984;DHT22;16737;50.932;6.780;2023-11-19T10:15:56;16.50;99.90
9984;DHT22;16737;50.932;6.780;2023-11-19T10:18:25;16.50;99.90
9984;DHT22;16737;50.932;6.780;2023-11-19T10:20:53;16.60;99.90
9984;DHT22;16737;50.932;6.780;2023-11-19T11:03:18;16.80;98.40
9984;DHT22;16737;50.932;6.780;2023-11-19T11:05:47;16.80;98.70
9984;DHT22;16737;50.932;6.780;2023-11-19T11:08:19;16.80;98.90
9984;DHT22;16737;50.932;6.780;2023-11-19T11:10:52;16.80;98.70
9984;DHT22;16737;50.932;6.780;2023-11-19T11:13:22;16.70;98.70
9984;DHT22;16737;50.932;6.780;2023-11-19T11:15:52;16.70;98.70
9984;DHT22;16737;50.932;6.780;2023-11-19T11:18:22;16.70;98.80
9984;DHT22;16737;50.932;6.780;2023-11-19T11:20:52;16.60;98.80
9984;DHT22;16737;50.932;6.780;2023-11-19T11:26:56;16.60;98.50
9984;DHT22;16737;50.932;6.780;2023-11-19T11:29:40;16.60;98.40
9984;DHT22;16737;50.932;6.780;2023-11-19T11:32:29;16.60;98.70
9984;DHT22;16737;50.932;6.780;2023-11-19T11:35:12;16.60;98.70
9984;DHT22;16737;50.932;6.780;2023-11-19T11:37:57;16.60;98.30
9984;DHT22;16737;50.932;6.780;2023-11-19T11:40:28;16.60;98.40
9984;DHT22;16737;50.932;6.780;2023-11-19T11:42:55;16.50;98.50
9984;DHT22;16737;50.932;6.780;2023-11-19T11:45:36;16.50;98.50
9984;DHT22;16737;50.932;6.780;2023-11-19T11:48:10;16.50;98.00
9984;DHT22;16737;50.932;6.780;2023-11-19T11:50:57;16.50;98.20
9984;DHT22;16737;50.932;6.780;2023-11-19T11:53:25;16.50;98.00
9984;DHT22;16737;50.932;6.780;2023-11-19T11:55:57;16.40;98.40
9984;DHT22;16737;50.932;6.780;2023-11-19T11:58:32;16.40;98.30
9984;DHT22;16737;50.932;6.780;2023-11-19T12:01:04;16.40;98.50
9984;DHT22;16737;50.932;6.780;2023-11-19T12:03:37;16.40;98.50
9984;DHT22;16737;50.932;6.780;2023-11-19T12:06:05;16.40;98.30
9984;DHT22;16737;50.932;6.780;2023-11-19T12:08:41;16.40;98.50
9984;DHT22;16737;50.932;6.780;2023-11-19T12:11:08;16.50;98.40
9984;DHT22;16737;50.932;6.780;2023-11-19T12:17:41;16.50;98.20
9984;DHT22;16737;50.932;6.780;2023-11-19T12:20:12;16.60;98.40
9984;DHT22;16737;50.932;6.780;2023-11-19T12:22:40;16.60;98.60
9984;DHT22;16737;50.932;6.780;2023-11-19T12:25:10;16.60;98.60
9984;DHT22;16737;50.932;6.780;2023-11-19T12:27:39;16.60;98.60
9984;DHT22;16737;50.932;6.780;2023-11-19T12:30:08;16.70;98.60
9984;DHT22;16737;50.932;6.780;2023-11-19T12:32:42;16.70;98.60
9984;DHT22;16737;50.932;6.780;2023-11-19T12:35:11;16.70;98.30
9984;DHT22;16737;50.932;6.780;2023-11-19T12:37:40;16.80;98.50
9984;DHT22;16737;50.932;6.780;2023-11-19T12:40:15;16.80;98.50
9984;DHT22;16737;50.932;6.780;2023-11-19T12:42:43;16.80;98.10
9984;DHT22;16737;50.932;6.780;2023-11-19T12:45:10;16.80;98.40
9984;DHT22;16737;50.932;6.780;2023-11-19T12:47:38;16.80;98.40
9984;DHT22;16737;50.932;6.780;2023-11-19T12:50:06;16.80;98.30
9984;DHT22;16737;50.932;6.780;2023-11-19T12:52:36;16.70;98.20
9984;DHT22;16737;50.932;6.780;2023-11-19T12:55:05;16.80;98.20
9984;DHT22;16737;50.932;6.780;2023-11-19T12:57:50;16.80;98.20
9984;DHT22;16737;50.932;6.780;2023-11-19T13:00:21;16.70;98.20
9984;DHT22;16737;50.932;6.780;2023-11-19T13:02:50;16.80;98.00
9984;DHT22;16737;50.932;6.780;2023-11-19T13:05:23;16.80;98.10
9984;DHT22;16737;50.932;6.780;2023-11-19T13:08:00;16.70;98.00
9984;DHT22;16737;50.932;6.780;2023-11-19T13:10:28;16.70;97.90
9984;DHT22;16737;50.932;6.780;2023-11-19T13:13:03;16.70;98.20
9984;DHT22;16737;50.932;6.780;2023-11-19T13:15:32;16.70;98.00
9984;DHT22;16737;50.932;6.780;2023-11-19T13:17:59;16.70;98.10
9984;DHT22;16737;50.932;6.780;2023-11-19T13:20:26;16.70;97.90
9984;DHT22;16737;50.932;6.780;2023-11-19T13:22:55;16.70;97.90
9984;DHT22;16737;50.932;6.780;2023-11-19T13:25:27;16.70;97.90
9984;DHT22;16737;50.932;6.780;2023-11-19T13:27:54;16.70;97.80
9984;DHT22;16737;50.932;6.780;2023-11-19T13:30:22;16.70;97.90
9984;DHT22;16737;50.932;6.780;2023-11-19T13:32:50;16.60;97.80
9984;DHT22;16737;50.932;6.780;2023-11-19T13:35:18;16.60;97.90
9984;DHT22;16737;50.932;6.780;2023-11-19T13:37:46;16.60;97.90
9984;DHT22;16737;50.932;6.780;2023-11-19T13:40:13;16.60;97.80
9984;DHT22;16737;50.932;6.780;2023-11-19T13:42:46;16.60;97.80
9984;DHT22;16737;50.932;6.780;2023-11-19T13:45:14;16.70;97.80
9984;DHT22;16737;50.932;6.780;2023-11-19T13:47:45;16.70;97.70
9984;DHT22;16737;50.932;6.780;2023-11-19T13:50:14;16.70;97.80
9984;DHT22;16737;50.932;6.780;2023-11-19T13:52:43;16.70;97.70
9984;DHT22;16737;50.932;6.780;2023-11-19T13:55:12;16.70;97.70
9984;DHT22;16737;50.932;6.780;2023-11-19T13:57:41;16.70;97.60
9984;DHT22;16737;50.932;6.780;2023-11-19T14:00:11;16.70;97.50
9984;DHT22;16737;50.932;6.780;2023-11-19T14:02:41;16.70;97.50
9984;DHT22;16737;50.932;6.780;2023-11-19T14:05:10;16.70;97.50
9984;DHT22;16737;50.932;6.780;2023-11-19T14:07:37;16.70;97.30
9984;DHT22;16737;50.932;6.780;2023-11-19T14:10:05;16.70;97.40
9984;DHT22;16737;50.932;6.780;2023-11-19T14:12:34;16.70;97.40
9984;DHT22;16737;50.932;6.780;2023-11-19T14:15:02;16.70;97.30
9984;DHT22;16737;50.932;6.780;2023-11-19T14:17:33;16.70;97.40
9984;DHT22;16737;50.932;6.780;2023-11-19T14:20:00;16.70;97.30
9984;DHT22;16737;50.932;6.780;2023-11-19T14:22:33;16.70;97.40
9984;DHT22;16737;50.932;6.780;2023-11-19T14:25:00;16.70;97.20
9984;DHT22;16737;50.932;6.780;2023-11-19T14:27:27;16.70;97.30
9984;DHT22;16737;50.932;6.780;2023-11-19T14:29:54;16.70;97.20
9984;DHT22;16737;50.932;6.780;2023-11-19T14:32:24;16.70;97.10
9984;DHT22;16737;50.932;6.780;2023-11-19T14:34:52;16.70;97.00
9984;DHT22;16737;50.932;6.780;2023-11-19T14:37:19;16.70;97.00
9984;DHT22;16737;50.932;6.780;2023-11-19T14:39:46;16.70;96.90
9984;DHT22;16737;50.932;6.780;2023-11-19T14:42:16;16.70;97.00
9984;DHT22;16737;50.932;6.780;2023-11-19T14:44:43;16.60;97.00
9984;DHT22;16737;50.932;6.780;2023-11-19T14:47:10;16.60;97.00
9984;DHT22;16737;50.932;6.780;2023-11-19T14:49:37;16.60;97.00
9984;DHT22;16737;50.932;6.780;2023-11-19T14:52:06;16.60;96.80
9984;DHT22;16737;50.932;6.780;2023-11-19T14:54:33;16.60;96.80
9984;DHT22;16737;50.932;6.780;2023-11-19T14:57:01;16.50;96.70
9984;DHT22;16737;50.932;6.780;2023-11-19T14:59:28;16.50;96.80
9984;DHT22;16737;50.932;6.780;2023-11-19T15:01:55;16.50;96.70
9984;DHT22;16737;50.932;6.780;2023-11-19T15:04:22;16.50;96.80
9984;DHT22;16737;50.932;6.780;2023-11-19T15:06:50;16.40;96.80
9984;DHT22;16737;50.932;6.780;2023-11-19T15:09:18;16.40;96.70
9984;DHT22;16737;50.932;6.780;2023-11-19T15:11:46;16.40;96.70
9984;DHT22;16737;50.932;6.780;2023-11-19T15:14:14;16.40;96.70
9984;DHT22;16737;50.932;6.780;2023-11-19T15:16:44;16.40;96.70
9984;DHT22;16737;50.932;6.780;2023-11-19T15:19:12;16.30;96.70
9984;DHT22;16737;50.932;6.780;2023-11-19T15:21:47;16.30;96.60
9984;DHT22;16737;50.932;6.780;2023-11-19T15:24:14;16.30;96.70
9984;DHT22;16737;50.932;6.780;2023-11-19T15:26:42;16.30;96.70
9984;DHT22;16737;50.932;6.780;2023-11-19T15:29:09;16.20;96.60
9984;DHT22;16737;50.932;6.780;2023-11-19T15:31:36;16.20;96.70
9984;DHT22;16737;50.932;6.780;2023-11-19T15:34:03;16.20;96.80
9984;DHT22;16737;50.932;6.780;2023-11-19T15:36:30;16.10;96.80
9984;DHT22;16737;50.932;6.780;2023-11-19T15:39:03;16.10;96.80
9984;DHT22;16737;50.932;6.780;2023-11-19T15:41:31;16.10;96.70
9984;DHT22;16737;50.932;6.780;2023-11-19T15:43:59;16.00;96.70
9984;DHT22;16737;50.932;6.780;2023-11-19T15:46:29;16.00;96.70
9984;DHT22;16737;50.932;6.780;2023-11-19T15:49:02;16.00;96.80
9984;DHT22;16737;50.932;6.780;2023-11-19T15:51:30;15.90;96.80
9984;DHT22;16737;50.932;6.780;2023-11-19T15:53:57;15.90;96.80
9984;DHT22;16737;50.932;6.780;2023-11-19T15:56:24;15.90;96.80
9984;DHT22;16737;50.932;6.780;2023-11-19T15:58:51;15.80;96.80
9984;DHT22;16737;50.932;6.780;2023-11-19T16:01:19;15.80;96.80
9984;DHT22;16737;50.932;6.780;2023-11-19T16:03:46;15.70;96.70
9984;DHT22;16737;50.932;6.780;2023-11-19T16:06:13;15.70;96.80
9984;DHT22;16737;50.932;6.780;2023-11-19T16:08:42;15.70;96.80
9984;DHT22;16737;50.932;6.780;2023-11-19T16:11:10;15.70;96.80
9984;DHT22;16737;50.932;6.780;2023-11-19T16:13:38;15.60;96.70
9984;DHT22;16737;50.932;6.780;2023-11-19T16:16:05;15.60;96.80
9984;DHT22;16737;50.932;6.780;2023-11-19T16:18:34;15.60;96.80
9984;DHT22;16737;50.932;6.780;2023-11-19T16:21:01;15.60;96.80
9984;DHT22;16737;50.932;6.780;2023-11-19T16:23:29;15.60;96.80
9984;DHT22;16737;50.932;6.780;2023-11-19T16:25:56;15.60;96.90
9984;DHT22;16737;50.932;6.780;2023-11-19T16:28:23;15.60;96.80
9984;DHT22;16737;50.932;6.780;2023-11-19T16:30:50;15.60;96.90
9984;DHT22;16737;50.932;6.780;2023-11-19T16:33:17;15.60;96.90
9984;DHT22;16737;50.932;6.780;2023-11-19T16:35:46;15.60;96.80
9984;DHT22;16737;50.932;6.780;2023-11-19T16:38:13;15.60;97.10
9984;DHT22;16737;50.932;6.780;2023-11-19T16:40:43;15.60;96.80